Time,TemperatureF,DewpointF,PressureIn,WindDirection,WindDirectionDegrees,WindSpeedMPH,WindSpeedGustMPH,Humidity,HourlyPrecipIn,Conditions,Clouds,dailyrainin,SoftwareType,DateUTC
2013-06-24 00:01:00,77.4,67.6,29.14,North,0,0.0,0.0,72,0.00,,,0.00,meteohub,2013-06-24 04:01:00,
2013-06-24 00:02:00,77.4,67.6,29.14,North,0,0.0,0.0,72,0.00,,,0.00,meteohub,2013-06-24 04:02:00,
2013-06-24 00:07:00,77.2,67.5,29.14,North,0,0.0,0.0,72,0.00,,,0.00,meteohub,2013-06-24 04:07:00,
2013-06-24 00:12:00,77.2,67.5,29.14,North,0,0.0,0.0,72,0.00,,,0.00,meteohub,2013-06-24 04:12:00,
2013-06-24 00:17:00,76.8,67.1,29.14,North,0,0.0,0.0,72,0.00,,,0.00,meteohub,2013-06-24 04:17:00,
2013-06-24 00:22:00,76.8,67.5,29.14,North,0,0.0,0.0,73,0.00,,,0.00,meteohub,2013-06-24 04:22:00,
2013-06-24 00:27:00,76.8,67.5,29.14,North,0,0.0,0.0,73,0.00,,,0.00,meteohub,2013-06-24 04:27:00,
2013-06-24 00:32:00,76.6,67.3,29.14,North,0,0.0,0.0,73,0.00,,,0.00,meteohub,2013-06-24 04:32:00,
2013-06-24 00:37:00,76.6,67.3,29.14,North,0,0.0,0.0,73,0.00,,,0.00,meteohub,2013-06-24 04:37:00,
2013-06-24 00:42:00,76.5,67.1,29.14,North,0,0.0,0.0,73,0.00,,,0.00,meteohub,2013-06-24 04:42:00,
2013-06-24 00:47:00,76.3,66.9,29.14,North,0,0.0,0.0,73,0.00,,,0.00,meteohub,2013-06-24 04:47:00,
2013-06-24 00:52:00,76.5,67.1,29.14,North,0,0.0,0.0,73,0.00,,,0.00,meteohub,2013-06-24 04:52:00,
2013-06-24 00:57:00,76.3,66.9,29.14,North,0,0.0,0.0,73,0.00,,,0.00,meteohub,2013-06-24 04:57:00,
2013-06-24 01:02:00,76.1,66.7,29.14,North,0,0.0,0.0,73,0.00,,,0.00,meteohub,2013-06-24 05:02:00,
2013-06-24 01:07:00,75.9,66.6,29.14,North,0,0.0,0.0,73,0.00,,,0.00,meteohub,2013-06-24 05:07:00,
2013-06-24 01:12:00,75.9,66.6,29.14,North,0,0.0,0.0,73,0.00,,,0.00,meteohub,2013-06-24 05:12:00,
2013-06-24 01:17:00,75.9,66.6,29.14,North,0,0.0,0.0,73,0.00,,,0.00,meteohub,2013-06-24 05:17:00,
2013-06-24 01:22:00,75.7,66.4,29.14,North,0,0.0,0.0,73,0.00,,,0.00,meteohub,2013-06-24 05:22:00,
2013-06-24 01:27:00,75.7,66.4,29.14,North,0,0.0,0.0,73,0.00,,,0.00,meteohub,2013-06-24 05:27:00,
2013-06-24 01:32:00,75.6,66.4,29.14,North,0,0.0,0.0,73,0.00,,,0.00,meteohub,2013-06-24 05:32:00,
2013-06-24 01:38:00,75.4,66.2,29.14,North,0,0.0,0.0,73,0.00,,,0.00,meteohub,2013-06-24 05:38:00,
2013-06-24 01:43:00,75.4,66.2,29.14,North,0,0.0,0.0,73,0.00,,,0.00,meteohub,2013-06-24 05:43:00,
2013-06-24 01:49:00,75.4,66.2,29.14,North,0,0.0,0.0,73,0.00,,,0.00,meteohub,2013-06-24 05:49:00,
2013-06-24 01:54:00,75.4,66.2,29.14,North,0,0.0,0.0,73,0.00,,,0.00,meteohub,2013-06-24 05:54:00,
2013-06-24 02:00:00,75.2,65.5,29.14,North,0,0.0,0.0,72,0.00,,,0.00,meteohub,2013-06-24 06:00:00,
2013-06-24 02:07:00,75.0,65.3,29.14,North,0,0.0,0.0,72,0.00,,,0.00,meteohub,2013-06-24 06:07:00,
2013-06-24 02:12:00,75.0,65.3,29.14,North,0,0.0,0.0,72,0.00,,,0.00,meteohub,2013-06-24 06:12:00,
2013-06-24 02:20:00,74.8,65.1,29.14,North,0,0.0,0.0,72,0.00,,,0.00,meteohub,2013-06-24 06:20:00,
2013-06-24 02:26:00,74.7,65.1,29.14,North,0,0.0,0.0,72,0.00,,,0.00,meteohub,2013-06-24 06:26:00,
2013-06-24 02:32:00,74.7,65.1,29.14,North,0,0.0,0.0,72,0.00,,,0.00,meteohub,2013-06-24 06:32:00,
2013-06-24 02:39:00,74.7,64.6,29.14,North,0,0.0,0.0,71,0.00,,,0.00,meteohub,2013-06-24 06:39:00,
2013-06-24 02:44:00,74.3,64.2,29.14,North,0,0.0,0.0,71,0.00,,,0.00,meteohub,2013-06-24 06:44:00,
2013-06-24 02:49:00,74.1,64.0,29.14,North,0,0.0,0.0,71,0.00,,,0.00,meteohub,2013-06-24 06:49:00,
2013-06-24 02:54:00,74.1,64.0,29.14,North,0,0.0,0.0,71,0.00,,,0.00,meteohub,2013-06-24 06:54:00,
2013-06-24 02:59:00,73.9,63.9,29.14,North,0,0.0,0.0,71,0.00,,,0.00,meteohub,2013-06-24 06:59:00,
2013-06-24 03:07:00,73.9,63.5,29.14,North,0,0.0,0.0,70,0.00,,,0.00,meteohub,2013-06-24 07:07:00,
2013-06-24 03:12:00,73.8,63.7,29.14,North,0,0.0,0.0,71,0.00,,,0.00,meteohub,2013-06-24 07:12:00,
2013-06-24 03:17:00,73.6,63.1,29.14,North,0,0.0,0.0,70,0.00,,,0.00,meteohub,2013-06-24 07:17:00,
2013-06-24 03:22:00,73.2,62.8,29.14,North,0,0.0,0.0,70,0.00,,,0.00,meteohub,2013-06-24 07:22:00,
2013-06-24 03:27:00,73.0,62.6,29.14,North,0,0.0,0.0,70,0.00,,,0.00,meteohub,2013-06-24 07:27:00,
2013-06-24 03:32:00,72.9,62.1,29.14,North,0,0.0,0.0,69,0.00,,,0.00,meteohub,2013-06-24 07:32:00,
2013-06-24 03:37:00,72.9,62.1,29.14,North,0,0.0,0.0,69,0.00,,,0.00,meteohub,2013-06-24 07:37:00,
2013-06-24 03:42:00,72.5,61.0,29.14,North,0,0.0,0.0,67,0.00,,,0.00,meteohub,2013-06-24 07:42:00,
2013-06-24 03:49:00,72.5,60.4,29.14,North,0,0.0,0.0,66,0.00,,,0.00,meteohub,2013-06-24 07:49:00,
2013-06-24 03:55:00,72.3,59.9,29.14,North,0,0.0,0.0,65,0.00,,,0.00,meteohub,2013-06-24 07:55:00,
2013-06-24 04:02:00,72.3,59.9,29.14,North,0,0.0,0.0,65,0.00,,,0.00,meteohub,2013-06-24 08:02:00,
2013-06-24 04:07:00,72.1,59.4,29.14,North,0,0.0,0.0,64,0.00,,,0.00,meteohub,2013-06-24 08:07:00,
2013-06-24 04:12:00,72.1,59.4,29.14,North,0,0.0,0.0,64,0.00,,,0.00,meteohub,2013-06-24 08:12:00,
2013-06-24 04:17:00,72.1,59.4,29.14,North,0,0.0,0.0,64,0.00,,,0.00,meteohub,2013-06-24 08:17:00,
2013-06-24 04:23:00,72.1,59.4,29.14,North,0,0.0,0.0,64,0.00,,,0.00,meteohub,2013-06-24 08:23:00,
2013-06-24 04:30:00,72.0,59.2,29.14,North,0,0.0,0.0,64,0.00,,,0.00,meteohub,2013-06-24 08:30:00,
2013-06-24 04:35:00,71.8,59.0,29.14,North,0,0.0,0.0,64,0.00,,,0.00,meteohub,2013-06-24 08:35:00,
2013-06-24 04:40:00,71.8,59.0,29.14,North,0,0.0,0.0,64,0.00,,,0.00,meteohub,2013-06-24 08:40:00,
2013-06-24 04:46:00,71.8,59.0,29.14,North,0,0.0,0.0,64,0.00,,,0.00,meteohub,2013-06-24 08:46:00,
2013-06-24 04:52:00,71.6,58.8,29.14,North,0,0.0,0.0,64,0.00,,,0.00,meteohub,2013-06-24 08:52:00,
2013-06-24 04:57:00,71.6,58.3,29.14,North,0,0.0,0.0,63,0.00,,,0.00,meteohub,2013-06-24 08:57:00,
2013-06-24 05:02:00,71.6,58.3,29.14,North,0,0.0,0.0,63,0.00,,,0.00,meteohub,2013-06-24 09:02:00,
2013-06-24 05:09:00,71.4,58.1,29.14,North,0,0.0,0.0,63,0.00,,,0.00,meteohub,2013-06-24 09:09:00,
2013-06-24 05:14:00,71.2,57.9,29.14,North,0,0.0,0.0,63,0.00,,,0.00,meteohub,2013-06-24 09:14:00,
2013-06-24 05:22:00,71.2,57.9,29.14,North,0,0.0,0.0,63,0.00,,,0.00,meteohub,2013-06-24 09:22:00,
2013-06-24 05:27:00,71.1,57.7,29.14,North,0,0.0,0.0,63,0.00,,,0.00,meteohub,2013-06-24 09:27:00,
2013-06-24 05:32:00,71.1,57.7,29.14,North,0,0.0,0.0,63,0.00,,,0.00,meteohub,2013-06-24 09:32:00,
2013-06-24 05:37:00,70.9,57.7,29.14,North,0,0.0,0.0,63,0.00,,,0.00,meteohub,2013-06-24 09:37:00,
2013-06-24 05:42:00,70.9,57.7,29.14,North,0,0.0,0.0,63,0.00,,,0.00,meteohub,2013-06-24 09:42:00,
2013-06-24 05:47:00,70.7,57.0,29.14,North,0,0.0,0.0,62,0.00,,,0.00,meteohub,2013-06-24 09:47:00,
2013-06-24 05:52:00,70.5,56.8,29.14,North,0,0.0,0.0,62,0.00,,,0.00,meteohub,2013-06-24 09:52:00,
2013-06-24 06:00:00,70.5,56.8,29.14,North,0,0.0,0.0,62,0.00,,,0.00,meteohub,2013-06-24 10:00:00,
2013-06-24 06:07:00,70.3,56.7,29.14,North,0,0.0,0.0,62,0.00,,,0.00,meteohub,2013-06-24 10:07:00,
2013-06-24 06:12:00,70.3,56.7,29.14,North,0,0.0,0.0,62,0.00,,,0.00,meteohub,2013-06-24 10:12:00,
2013-06-24 06:17:00,70.3,56.7,29.14,North,0,0.0,0.0,62,0.00,,,0.00,meteohub,2013-06-24 10:17:00,
2013-06-24 06:22:00,70.2,56.5,29.14,North,0,0.0,0.0,62,0.00,,,0.00,meteohub,2013-06-24 10:22:00,
2013-06-24 06:28:00,70.2,56.5,29.14,North,0,0.0,0.0,62,0.00,,,0.00,meteohub,2013-06-24 10:28:00,
2013-06-24 06:35:00,70.0,55.9,29.14,North,0,0.0,0.0,61,0.00,,,0.00,meteohub,2013-06-24 10:35:00,
2013-06-24 06:42:00,69.8,55.8,29.14,North,0,0.0,0.0,61,0.00,,,0.00,meteohub,2013-06-24 10:42:00,
2013-06-24 06:47:00,70.0,55.9,29.14,North,0,0.0,0.0,61,0.00,,,0.00,meteohub,2013-06-24 10:47:00,
2013-06-24 06:52:00,69.8,55.8,29.14,North,0,0.0,0.0,61,0.00,,,0.00,meteohub,2013-06-24 10:52:00,
2013-06-24 06:57:00,70.0,55.9,29.14,North,0,0.0,0.0,61,0.00,,,0.00,meteohub,2013-06-24 10:57:00,
2013-06-24 07:02:00,70.0,55.9,29.14,North,0,0.0,0.0,61,0.00,,,0.00,meteohub,2013-06-24 11:02:00,
2013-06-24 07:07:00,70.2,55.6,29.14,North,0,0.0,0.0,60,0.00,,,0.00,meteohub,2013-06-24 11:07:00,
2013-06-24 07:12:00,70.2,55.6,29.14,North,0,0.0,0.0,60,0.00,,,0.00,meteohub,2013-06-24 11:12:00,
2013-06-24 07:17:00,70.3,55.8,29.14,North,0,0.0,0.0,60,0.00,,,0.00,meteohub,2013-06-24 11:17:00,
2013-06-24 07:22:00,70.3,55.8,29.14,North,0,0.0,0.0,60,0.00,,,0.00,meteohub,2013-06-24 11:22:00,
2013-06-24 07:27:00,70.5,55.9,29.14,North,0,0.0,0.0,60,0.00,,,0.00,meteohub,2013-06-24 11:27:00,
2013-06-24 07:32:00,70.7,56.7,29.14,North,0,0.0,0.0,61,0.00,,,0.00,meteohub,2013-06-24 11:32:00,
2013-06-24 07:37:00,70.7,56.7,29.14,North,0,0.0,0.0,61,0.00,,,0.00,meteohub,2013-06-24 11:37:00,
2013-06-24 07:42:00,70.9,56.8,29.14,North,0,0.0,0.0,61,0.00,,,0.00,meteohub,2013-06-24 11:42:00,
2013-06-24 07:47:00,71.1,57.4,29.14,North,0,0.0,0.0,62,0.00,,,0.00,meteohub,2013-06-24 11:47:00,
2013-06-24 07:53:00,71.2,57.6,29.14,North,0,0.0,0.0,62,0.00,,,0.00,meteohub,2013-06-24 11:53:00,
2013-06-24 07:58:00,71.4,58.1,29.14,North,0,0.0,0.0,63,0.00,,,0.00,meteohub,2013-06-24 11:58:00,
2013-06-24 08:03:00,71.6,58.3,29.14,North,0,0.0,0.0,63,0.00,,,0.00,meteohub,2013-06-24 12:03:00,
2013-06-24 08:10:00,71.8,58.5,29.14,North,0,0.0,0.0,63,0.00,,,0.00,meteohub,2013-06-24 12:10:00,
2013-06-24 08:16:00,72.0,59.2,29.14,North,0,0.0,0.0,64,0.00,,,0.00,meteohub,2013-06-24 12:16:00,
2013-06-24 08:22:00,72.3,59.9,29.14,North,0,0.0,0.0,65,0.00,,,0.00,meteohub,2013-06-24 12:22:00,
2013-06-24 08:27:00,72.3,59.9,29.14,North,0,0.0,0.0,65,0.00,,,0.00,meteohub,2013-06-24 12:27:00,
2013-06-24 08:32:00,72.5,60.4,29.14,North,0,0.0,0.0,66,0.00,,,0.00,meteohub,2013-06-24 12:32:00,
2013-06-24 08:37:00,72.7,61.2,29.14,North,0,0.0,0.0,67,0.00,,,0.00,meteohub,2013-06-24 12:37:00,
2013-06-24 08:42:00,72.9,61.3,29.14,North,0,0.0,0.0,67,0.00,,,0.00,meteohub,2013-06-24 12:42:00,
2013-06-24 08:47:00,73.2,61.5,29.14,North,0,0.0,0.0,67,0.00,,,0.00,meteohub,2013-06-24 12:47:00,
2013-06-24 08:52:00,73.2,61.5,29.14,North,0,0.0,0.0,67,0.00,,,0.00,meteohub,2013-06-24 12:52:00,
2013-06-24 08:57:00,73.6,61.9,29.14,North,0,0.0,0.0,67,0.00,,,0.00,meteohub,2013-06-24 12:57:00,
2013-06-24 09:02:00,73.6,62.4,29.14,North,0,0.0,0.0,68,0.00,,,0.00,meteohub,2013-06-24 13:02:00,
2013-06-24 09:07:00,73.8,62.6,29.14,North,0,0.0,0.0,68,0.00,,,0.00,meteohub,2013-06-24 13:07:00,
2013-06-24 09:15:00,74.1,63.0,29.14,North,0,0.0,0.0,68,0.00,,,0.00,meteohub,2013-06-24 13:15:00,
2013-06-24 09:22:00,74.8,64.0,29.14,North,0,0.0,0.0,69,0.00,,,0.00,meteohub,2013-06-24 13:22:00,
2013-06-24 09:27:00,75.0,64.6,29.14,North,0,0.0,0.0,70,0.00,,,0.00,meteohub,2013-06-24 13:27:00,
2013-06-24 09:32:00,75.6,65.1,29.14,North,0,0.0,0.0,70,0.00,,,0.00,meteohub,2013-06-24 13:32:00,
2013-06-24 09:37:00,75.9,65.5,29.14,North,0,0.0,0.0,70,0.00,,,0.00,meteohub,2013-06-24 13:37:00,
2013-06-24 09:42:00,76.3,66.2,29.14,North,0,0.0,0.0,71,0.00,,,0.00,meteohub,2013-06-24 13:42:00,
2013-06-24 09:48:00,76.6,66.6,29.14,North,0,0.0,0.0,71,0.00,,,0.00,meteohub,2013-06-24 13:48:00,
2013-06-24 09:57:00,76.8,66.7,29.14,North,0,0.0,0.0,71,0.00,,,0.00,meteohub,2013-06-24 13:57:00,
2013-06-24 10:02:00,77.2,67.5,29.14,North,0,0.0,0.0,72,0.00,,,0.00,meteohub,2013-06-24 14:02:00,
2013-06-24 10:08:00,77.4,67.6,29.14,North,0,0.0,0.0,72,0.00,,,0.00,meteohub,2013-06-24 14:08:00,
2013-06-24 10:16:00,77.7,68.0,29.14,North,0,0.0,0.0,72,0.00,,,0.00,meteohub,2013-06-24 14:16:00,
2013-06-24 10:22:00,78.3,68.5,29.14,North,0,0.0,0.0,72,0.00,,,0.00,meteohub,2013-06-24 14:22:00,
2013-06-24 10:27:00,78.4,68.7,29.14,North,0,0.0,0.0,72,0.00,,,0.00,meteohub,2013-06-24 14:27:00,
2013-06-24 10:32:00,78.6,68.9,29.14,North,0,0.0,0.0,72,0.00,,,0.00,meteohub,2013-06-24 14:32:00,
2013-06-24 10:37:00,78.8,69.1,29.14,North,0,0.0,0.0,72,0.00,,,0.00,meteohub,2013-06-24 14:37:00,
2013-06-24 10:42:00,78.6,68.4,29.14,North,0,0.0,0.0,71,0.00,,,0.00,meteohub,2013-06-24 14:42:00,
2013-06-24 10:47:00,78.6,68.4,29.14,North,0,0.0,0.0,71,0.00,,,0.00,meteohub,2013-06-24 14:47:00,
2013-06-24 10:52:00,79.0,69.3,29.14,North,0,0.0,0.0,72,0.00,,,0.00,meteohub,2013-06-24 14:52:00,
2013-06-24 10:57:00,79.2,69.3,29.14,North,0,0.0,0.0,72,0.00,,,0.00,meteohub,2013-06-24 14:57:00,
2013-06-24 11:02:00,79.3,69.4,29.14,North,0,0.0,0.0,72,0.00,,,0.00,meteohub,2013-06-24 15:02:00,
2013-06-24 11:07:00,79.7,69.4,29.14,North,0,0.0,0.0,71,0.00,,,0.00,meteohub,2013-06-24 15:07:00,
2013-06-24 11:12:00,79.7,69.4,29.14,North,0,0.0,0.0,71,0.00,,,0.00,meteohub,2013-06-24 15:12:00,
2013-06-24 11:17:00,79.9,69.6,29.14,North,0,0.0,0.0,71,0.00,,,0.00,meteohub,2013-06-24 15:17:00,
2013-06-24 11:22:00,79.9,69.6,29.14,North,0,0.0,0.0,71,0.00,,,0.00,meteohub,2013-06-24 15:22:00,
2013-06-24 11:31:00,79.7,69.4,29.14,North,0,0.0,0.0,71,0.00,,,0.00,meteohub,2013-06-24 15:31:00,
2013-06-24 11:37:00,80.1,69.8,29.14,North,0,0.0,0.0,71,0.00,,,0.00,meteohub,2013-06-24 15:37:00,
2013-06-24 11:43:00,80.4,70.2,29.14,North,0,0.0,0.0,71,0.00,,,0.00,meteohub,2013-06-24 15:43:00,
2013-06-24 11:48:00,80.4,70.2,29.14,North,0,0.0,0.0,71,0.00,,,0.00,meteohub,2013-06-24 15:48:00,
2013-06-24 11:53:00,80.4,70.2,29.14,North,0,0.0,0.0,71,0.00,,,0.00,meteohub,2013-06-24 15:53:00,
2013-06-24 11:58:00,81.1,70.9,29.14,North,0,0.0,0.0,71,0.00,,,0.00,meteohub,2013-06-24 15:58:00,
2013-06-24 12:03:00,81.3,70.5,29.14,North,0,0.0,0.0,70,0.00,,,0.00,meteohub,2013-06-24 16:03:00,
2013-06-24 12:12:00,81.0,70.2,29.14,North,0,0.0,0.0,70,0.00,,,0.00,meteohub,2013-06-24 16:12:00,
2013-06-24 12:17:00,81.1,70.3,29.14,North,0,0.0,0.0,70,0.00,,,0.00,meteohub,2013-06-24 16:17:00,
2013-06-24 12:23:00,81.0,70.2,29.14,North,0,0.0,0.0,70,0.00,,,0.00,meteohub,2013-06-24 16:23:00,
2013-06-24 12:30:00,80.8,70.2,29.14,North,0,0.0,0.0,70,0.00,,,0.00,meteohub,2013-06-24 16:30:00,
2013-06-24 12:36:00,81.3,70.5,29.14,North,0,0.0,0.0,70,0.00,,,0.00,meteohub,2013-06-24 16:36:00,
2013-06-24 12:42:00,80.8,70.2,29.14,North,0,0.0,0.0,70,0.00,,,0.00,meteohub,2013-06-24 16:42:00,
2013-06-24 12:47:00,80.8,70.2,29.14,North,0,0.0,0.0,70,0.00,,,0.00,meteohub,2013-06-24 16:47:00,
2013-06-24 12:52:00,81.1,70.3,29.14,North,0,0.0,0.0,70,0.00,,,0.00,meteohub,2013-06-24 16:52:00,
2013-06-24 12:57:00,81.1,70.3,29.14,North,0,0.0,0.0,70,0.00,,,0.00,meteohub,2013-06-24 16:57:00,
2013-06-24 13:04:00,81.0,70.2,29.14,North,0,0.0,0.0,70,0.00,,,0.00,meteohub,2013-06-24 17:04:00,
2013-06-24 13:12:00,81.7,70.9,29.14,North,0,0.0,0.0,70,0.00,,,0.00,meteohub,2013-06-24 17:12:00,
2013-06-24 13:17:00,82.0,71.2,29.14,North,0,0.0,0.0,70,0.00,,,0.00,meteohub,2013-06-24 17:17:00,
2013-06-24 13:22:00,82.0,71.2,29.14,North,0,0.0,0.0,70,0.00,,,0.00,meteohub,2013-06-24 17:22:00,
2013-06-24 13:27:00,82.0,71.2,29.14,North,0,0.0,0.0,70,0.00,,,0.00,meteohub,2013-06-24 17:27:00,
2013-06-24 13:32:00,82.0,71.2,29.14,North,0,0.0,0.0,70,0.00,,,0.00,meteohub,2013-06-24 17:32:00,
2013-06-24 13:40:00,81.7,70.9,29.14,North,0,0.0,0.0,70,0.00,,,0.00,meteohub,2013-06-24 17:40:00,
2013-06-24 13:46:00,81.9,71.1,29.14,North,0,0.0,0.0,70,0.00,,,0.00,meteohub,2013-06-24 17:46:00,
2013-06-24 13:52:00,81.9,71.1,29.14,North,0,0.0,0.0,70,0.00,,,0.00,meteohub,2013-06-24 17:52:00,
2013-06-24 13:57:00,82.4,71.6,29.14,North,0,0.0,0.0,70,0.00,,,0.00,meteohub,2013-06-24 17:57:00,
2013-06-24 14:02:00,83.1,72.3,29.14,North,0,0.0,0.0,70,0.00,,,0.00,meteohub,2013-06-24 18:02:00,
2013-06-24 14:07:00,83.5,71.8,29.14,North,0,0.0,0.0,68,0.00,,,0.00,meteohub,2013-06-24 18:07:00,
2013-06-24 14:12:00,83.1,71.4,29.14,North,0,0.0,0.0,68,0.00,,,0.00,meteohub,2013-06-24 18:12:00,
2013-06-24 14:17:00,82.9,71.2,29.14,North,0,0.0,0.0,68,0.00,,,0.00,meteohub,2013-06-24 18:17:00,
2013-06-24 14:22:00,83.3,71.6,29.14,North,0,0.0,0.0,68,0.00,,,0.00,meteohub,2013-06-24 18:22:00,
2013-06-24 14:27:00,84.0,71.4,29.14,North,0,0.0,0.0,66,0.00,,,0.00,meteohub,2013-06-24 18:27:00,
2013-06-24 14:32:00,83.8,70.9,29.14,North,0,0.0,0.0,65,0.00,,,0.00,meteohub,2013-06-24 18:32:00,
2013-06-24 14:42:00,82.9,70.3,29.14,North,0,0.0,0.0,66,0.00,,,0.00,meteohub,2013-06-24 18:42:00,
2013-06-24 14:47:00,82.4,70.3,29.14,North,0,0.0,0.0,67,0.00,,,0.00,meteohub,2013-06-24 18:47:00,
2013-06-24 14:52:00,82.6,70.9,29.14,North,0,0.0,0.0,68,0.00,,,0.00,meteohub,2013-06-24 18:52:00,
2013-06-24 14:57:00,82.9,71.2,29.14,North,0,0.0,0.0,68,0.00,,,0.00,meteohub,2013-06-24 18:57:00,
2013-06-24 15:03:00,83.3,71.6,29.14,North,0,0.0,0.0,68,0.00,,,0.00,meteohub,2013-06-24 19:03:00,
2013-06-24 15:09:00,83.7,72.0,29.14,North,0,0.0,0.0,68,0.00,,,0.00,meteohub,2013-06-24 19:09:00,
2013-06-24 15:14:00,84.0,71.1,29.14,North,0,0.0,0.0,65,0.00,,,0.00,meteohub,2013-06-24 19:14:00,
2013-06-24 15:20:00,83.8,71.2,29.14,North,0,0.0,0.0,66,0.00,,,0.00,meteohub,2013-06-24 19:20:00,
2013-06-24 15:25:00,83.5,71.4,29.14,North,0,0.0,0.0,67,0.00,,,0.00,meteohub,2013-06-24 19:25:00,
2013-06-24 15:31:00,83.5,71.4,29.14,North,0,0.0,0.0,67,0.00,,,0.00,meteohub,2013-06-24 19:31:00,
2013-06-24 15:37:00,83.7,71.1,29.14,North,0,0.0,0.0,66,0.00,,,0.00,meteohub,2013-06-24 19:37:00,
2013-06-24 15:42:00,83.7,71.1,29.14,North,0,0.0,0.0,66,0.00,,,0.00,meteohub,2013-06-24 19:42:00,
2013-06-24 15:47:00,83.7,71.1,29.14,North,0,0.0,0.0,66,0.00,,,0.00,meteohub,2013-06-24 19:47:00,
2013-06-24 15:52:00,83.5,70.9,29.14,North,0,0.0,0.0,66,0.00,,,0.00,meteohub,2013-06-24 19:52:00,
2013-06-24 15:57:00,83.1,70.5,29.14,North,0,0.0,0.0,66,0.00,,,0.00,meteohub,2013-06-24 19:57:00,
2013-06-24 16:02:00,82.9,70.9,29.14,North,0,0.0,0.0,67,0.00,,,0.00,meteohub,2013-06-24 20:02:00,
2013-06-24 16:07:00,82.9,70.9,29.14,North,0,0.0,0.0,67,0.00,,,0.00,meteohub,2013-06-24 20:07:00,
2013-06-24 16:12:00,82.9,71.2,29.14,North,0,0.0,0.0,68,0.00,,,0.00,meteohub,2013-06-24 20:12:00,
2013-06-24 16:17:00,83.3,71.2,29.14,North,0,0.0,0.0,67,0.00,,,0.00,meteohub,2013-06-24 20:17:00,
2013-06-24 16:23:00,83.5,71.4,29.14,North,0,0.0,0.0,67,0.00,,,0.00,meteohub,2013-06-24 20:23:00,
2013-06-24 16:28:00,82.9,70.9,29.14,North,0,0.0,0.0,67,0.00,,,0.00,meteohub,2013-06-24 20:28:00,
2013-06-24 16:33:00,83.3,71.6,29.14,North,0,0.0,0.0,68,0.00,,,0.00,meteohub,2013-06-24 20:33:00,
2013-06-24 16:38:00,83.5,70.9,29.14,North,0,0.0,0.0,66,0.00,,,0.00,meteohub,2013-06-24 20:38:00,
2013-06-24 16:45:00,84.0,71.1,29.14,North,0,0.0,0.0,65,0.00,,,0.00,meteohub,2013-06-24 20:45:00,
2013-06-24 16:50:00,84.6,71.4,29.14,North,0,0.0,0.0,65,0.00,,,0.00,meteohub,2013-06-24 20:50:00,
2013-06-24 16:55:00,84.4,70.9,29.14,North,0,0.0,0.0,64,0.00,,,0.00,meteohub,2013-06-24 20:55:00,
2013-06-24 17:02:00,83.8,70.9,29.14,North,0,0.0,0.0,65,0.00,,,0.00,meteohub,2013-06-24 21:02:00,
2013-06-24 17:07:00,83.8,70.9,29.14,North,0,0.0,0.0,65,0.00,,,0.00,meteohub,2013-06-24 21:07:00,
2013-06-24 17:12:00,83.5,70.9,29.14,North,0,0.0,0.0,66,0.00,,,0.00,meteohub,2013-06-24 21:12:00,
2013-06-24 17:17:00,82.8,69.8,29.14,North,0,0.0,0.0,65,0.00,,,0.00,meteohub,2013-06-24 21:17:00,
2013-06-24 17:22:00,81.5,69.4,29.14,North,0,0.0,0.0,67,0.00,,,0.00,meteohub,2013-06-24 21:22:00,
2013-06-24 17:27:00,80.6,69.1,29.14,North,0,0.0,0.0,68,0.00,,,0.00,meteohub,2013-06-24 21:27:00,
2013-06-24 17:32:00,80.8,69.3,29.14,North,0,0.0,0.0,68,0.00,,,0.00,meteohub,2013-06-24 21:32:00,
2013-06-24 17:37:00,80.6,69.4,29.14,North,0,0.0,0.0,69,0.00,,,0.00,meteohub,2013-06-24 21:37:00,
2013-06-24 17:42:00,80.2,69.1,29.14,North,0,0.0,0.0,69,0.00,,,0.00,meteohub,2013-06-24 21:42:00,
2013-06-24 17:49:00,80.1,69.4,29.14,North,0,0.0,0.0,70,0.00,,,0.00,meteohub,2013-06-24 21:49:00,
2013-06-24 17:54:00,80.1,69.4,29.14,North,0,0.0,0.0,70,0.00,,,0.00,meteohub,2013-06-24 21:54:00,
2013-06-24 18:00:00,80.2,69.6,29.14,North,0,0.0,0.0,70,0.00,,,0.00,meteohub,2013-06-24 22:00:00,
2013-06-24 18:06:00,80.6,70.0,29.14,North,0,0.0,0.0,70,0.00,,,0.00,meteohub,2013-06-24 22:06:00,
2013-06-24 18:11:00,80.2,69.6,29.14,North,0,0.0,0.0,70,0.00,,,0.00,meteohub,2013-06-24 22:11:00,
2013-06-24 18:17:00,80.8,70.5,29.14,North,0,0.0,0.0,71,0.00,,,0.00,meteohub,2013-06-24 22:17:00,
2013-06-24 18:22:00,81.0,70.2,29.14,North,0,0.0,0.0,70,0.00,,,0.00,meteohub,2013-06-24 22:22:00,
2013-06-24 18:27:00,81.0,70.2,29.14,North,0,0.0,0.0,70,0.00,,,0.00,meteohub,2013-06-24 22:27:00,
2013-06-24 18:32:00,80.6,70.0,29.14,North,0,0.0,0.0,70,0.00,,,0.00,meteohub,2013-06-24 22:32:00,
2013-06-24 18:37:00,80.4,69.8,29.14,North,0,0.0,0.0,70,0.00,,,0.00,meteohub,2013-06-24 22:37:00,
2013-06-24 18:42:00,80.4,69.8,29.14,North,0,0.0,0.0,70,0.00,,,0.00,meteohub,2013-06-24 22:42:00,
2013-06-24 18:48:00,80.1,69.4,29.14,North,0,0.0,0.0,70,0.00,,,0.00,meteohub,2013-06-24 22:48:00,
2013-06-24 18:54:00,79.9,69.6,29.14,North,0,0.0,0.0,71,0.00,,,0.00,meteohub,2013-06-24 22:54:00,
2013-06-24 18:59:00,79.9,69.6,29.14,North,0,0.0,0.0,71,0.00,,,0.00,meteohub,2013-06-24 22:59:00,
2013-06-24 19:05:00,79.7,69.4,29.14,North,0,0.0,0.0,71,0.00,,,0.00,meteohub,2013-06-24 23:05:00,
2013-06-24 19:10:00,79.7,69.8,29.14,North,0,0.0,0.0,72,0.00,,,0.00,meteohub,2013-06-24 23:10:00,
2013-06-24 19:15:00,79.2,69.3,29.14,North,0,0.0,0.0,72,0.00,,,0.00,meteohub,2013-06-24 23:15:00,
2013-06-24 19:22:00,78.6,68.4,29.14,North,0,0.0,0.0,71,0.00,,,0.00,meteohub,2013-06-24 23:22:00,
2013-06-24 19:27:00,78.6,68.9,29.14,North,0,0.0,0.0,72,0.00,,,0.00,meteohub,2013-06-24 23:27:00,
2013-06-24 19:32:00,78.6,68.9,29.14,North,0,0.0,0.0,72,0.00,,,0.00,meteohub,2013-06-24 23:32:00,
2013-06-24 19:37:00,78.3,68.5,29.14,North,0,0.0,0.0,72,0.00,,,0.00,meteohub,2013-06-24 23:37:00,
2013-06-24 19:42:00,78.1,68.4,29.14,North,0,0.0,0.0,72,0.00,,,0.00,meteohub,2013-06-24 23:42:00,
2013-06-24 19:47:00,77.9,68.2,29.14,North,0,0.0,0.0,72,0.00,,,0.00,meteohub,2013-06-24 23:47:00,
2013-06-24 19:52:00,77.5,67.8,29.14,North,0,0.0,0.0,72,0.00,,,0.00,meteohub,2013-06-24 23:52:00,
2013-06-24 19:58:00,77.5,68.2,29.14,North,0,0.0,0.0,73,0.00,,,0.00,meteohub,2013-06-24 23:58:00,
2013-06-24 20:03:00,77.5,67.8,29.14,North,0,0.0,0.0,72,0.00,,,0.00,meteohub,2013-06-25 00:03:00,
2013-06-24 20:09:00,77.4,68.0,29.14,North,0,0.0,0.0,73,0.00,,,0.00,meteohub,2013-06-25 00:09:00,
2013-06-24 20:17:00,77.4,68.0,29.14,North,0,0.0,0.0,73,0.00,,,0.00,meteohub,2013-06-25 00:17:00,
2013-06-24 20:22:00,77.5,67.8,29.14,North,0,0.0,0.0,72,0.00,,,0.00,meteohub,2013-06-25 00:22:00,
2013-06-24 20:29:00,77.5,67.8,29.14,North,0,0.0,0.0,72,0.00,,,0.00,meteohub,2013-06-25 00:29:00,
2013-06-24 20:34:00,77.5,67.8,29.14,North,0,0.0,0.0,72,0.00,,,0.00,meteohub,2013-06-25 00:34:00,
2013-06-24 20:40:00,77.5,68.2,29.14,North,0,0.0,0.0,73,0.00,,,0.00,meteohub,2013-06-25 00:40:00,
2013-06-24 20:45:00,77.4,68.0,29.14,North,0,0.0,0.0,73,0.00,,,0.00,meteohub,2013-06-25 00:45:00,
2013-06-24 20:50:00,76.8,67.5,29.14,North,0,0.0,0.0,73,0.00,,,0.00,meteohub,2013-06-25 00:50:00,
2013-06-24 20:55:00,76.5,67.1,29.14,North,0,0.0,0.0,73,0.00,,,0.00,meteohub,2013-06-25 00:55:00,
2013-06-24 21:01:00,76.3,66.9,29.14,North,0,0.0,0.0,73,0.00,,,0.00,meteohub,2013-06-25 01:01:00,
2013-06-24 21:07:00,75.9,66.6,29.14,North,0,0.0,0.0,73,0.00,,,0.00,meteohub,2013-06-25 01:07:00,
2013-06-24 21:13:00,75.6,66.4,29.14,North,0,0.0,0.0,73,0.00,,,0.00,meteohub,2013-06-25 01:13:00,
2013-06-24 21:18:00,75.4,66.2,29.14,North,0,0.0,0.0,73,0.00,,,0.00,meteohub,2013-06-25 01:18:00,
2013-06-24 21:23:00,75.0,65.8,29.14,North,0,0.0,0.0,73,0.00,,,0.00,meteohub,2013-06-25 01:23:00,
2013-06-24 21:28:00,74.5,65.3,29.14,North,0,0.0,0.0,73,0.00,,,0.00,meteohub,2013-06-25 01:28:00,
2013-06-24 21:33:00,73.9,64.8,29.14,North,0,0.0,0.0,73,0.00,,,0.00,meteohub,2013-06-25 01:33:00,
2013-06-24 21:40:00,73.6,64.0,29.14,North,0,0.0,0.0,72,0.00,,,0.00,meteohub,2013-06-25 01:40:00,
2013-06-24 21:45:00,73.2,63.7,29.14,North,0,0.0,0.0,72,0.00,,,0.00,meteohub,2013-06-25 01:45:00,
2013-06-24 21:52:00,73.0,63.1,29.14,North,0,0.0,0.0,71,0.00,,,0.00,meteohub,2013-06-25 01:52:00,
2013-06-24 21:57:00,72.7,62.8,29.14,North,0,0.0,0.0,71,0.00,,,0.00,meteohub,2013-06-25 01:57:00,
2013-06-24 22:02:00,72.7,62.8,29.14,North,0,0.0,0.0,71,0.00,,,0.00,meteohub,2013-06-25 02:02:00,
2013-06-24 22:07:00,72.5,62.6,29.14,North,0,0.0,0.0,71,0.00,,,0.00,meteohub,2013-06-25 02:07:00,
2013-06-24 22:13:00,72.3,62.4,29.14,North,0,0.0,0.0,71,0.00,,,0.00,meteohub,2013-06-25 02:13:00,
2013-06-24 22:19:00,72.1,61.9,29.14,North,0,0.0,0.0,70,0.00,,,0.00,meteohub,2013-06-25 02:19:00,
2013-06-24 22:25:00,72.1,61.3,29.14,North,0,0.0,0.0,69,0.00,,,0.00,meteohub,2013-06-25 02:25:00,
2013-06-24 22:32:00,72.0,61.2,29.14,North,0,0.0,0.0,69,0.00,,,0.00,meteohub,2013-06-25 02:32:00,
2013-06-24 22:37:00,72.0,61.2,29.14,North,0,0.0,0.0,69,0.00,,,0.00,meteohub,2013-06-25 02:37:00,
2013-06-24 22:42:00,72.0,61.2,29.14,North,0,0.0,0.0,69,0.00,,,0.00,meteohub,2013-06-25 02:42:00,
2013-06-24 22:48:00,72.0,61.2,29.14,North,0,0.0,0.0,69,0.00,,,0.00,meteohub,2013-06-25 02:48:00,
2013-06-24 22:53:00,71.8,61.0,29.14,North,0,0.0,0.0,69,0.00,,,0.00,meteohub,2013-06-25 02:53:00,
2013-06-24 22:58:00,71.8,61.0,29.14,North,0,0.0,0.0,69,0.00,,,0.00,meteohub,2013-06-25 02:58:00,
2013-06-24 23:04:00,71.6,60.8,29.14,North,0,0.0,0.0,69,0.00,,,0.00,meteohub,2013-06-25 03:04:00,
2013-06-24 23:10:00,71.4,60.8,29.14,North,0,0.0,0.0,69,0.00,,,0.00,meteohub,2013-06-25 03:10:00,
2013-06-24 23:15:00,71.2,60.1,29.14,North,0,0.0,0.0,68,0.00,,,0.00,meteohub,2013-06-25 03:15:00,
2013-06-24 23:21:00,71.1,59.9,29.14,North,0,0.0,0.0,68,0.00,,,0.00,meteohub,2013-06-25 03:21:00,
2013-06-24 23:27:00,70.5,59.4,29.14,North,0,0.0,0.0,68,0.00,,,0.00,meteohub,2013-06-25 03:27:00,
2013-06-24 23:32:00,70.3,59.4,29.14,North,0,0.0,0.0,68,0.00,,,0.00,meteohub,2013-06-25 03:32:00,
2013-06-24 23:39:00,70.3,58.8,29.14,North,0,0.0,0.0,67,0.00,,,0.00,meteohub,2013-06-25 03:39:00,
2013-06-24 23:44:00,70.2,58.6,29.14,North,0,0.0,0.0,67,0.00,,,0.00,meteohub,2013-06-25 03:44:00,
2013-06-24 23:49:00,70.0,58.5,29.14,North,0,0.0,0.0,67,0.00,,,0.00,meteohub,2013-06-25 03:49:00,
2013-06-24 23:56:00,69.8,58.3,29.14,North,0,0.0,0.0,67,0.00,,,0.00,meteohub,2013-06-25 03:56:00,